Terminal Aerodrome Forecast
Issued by NWS Austin/San Antonio, TX

Home | Current Version | Previous Version | Text Only | Print | Product List | Glossary On
Versions: 1 2 3 4 5 6 7 8 9 10 11 12
000
FTUS44 KEWX 292300
TAFDRT
TAF
KDRT 292339Z 3000/3024 10005KT P6SM SCT100 BKN250
     FM300200 03010KT P6SM BKN035 BKN100
     FM301700 10010KT P6SM OVC025=

USA.gov is the U.S. government's official web portal to all federal, state and local government web resources and services.